sensor_id;sensor_type;location;lat;lon;timestamp;pressure;altitude;pressure_sealevel;temperature;humidity
22025;BME280;11176;51.448;6.650;2023-05-11T00:00:36;42761.38;;;-141.29;100.00
22025;BME280;11176;51.448;6.650;2023-05-11T00:03:03;42771.34;;;-141.29;100.00
22025;BME280;11176;51.448;6.650;2023-05-11T00:05:30;42763.34;;;-141.29;100.00
22025;BME280;11176;51.448;6.650;2023-05-11T00:07:56;42765.34;;;-141.29;100.00
22025;BME280;11176;51.448;6.650;2023-05-11T00:10:23;42759.38;;;-141.29;100.00
22025;BME280;11176;51.448;6.650;2023-05-11T00:12:49;42749.38;;;-141.29;100.00
22025;BME280;11176;51.448;6.650;2023-05-11T00:15:16;42763.34;;;-141.29;100.00
22025;BME280;11176;51.448;6.650;2023-05-11T00:17:43;42779.34;;;-141.29;100.00
22025;BME280;11176;51.448;6.650;2023-05-11T00:20:10;42761.38;;;-141.29;100.00
22025;BME280;11176;51.448;6.650;2023-05-11T00:22:37;42769.34;;;-141.29;100.00
22025;BME280;11176;51.448;6.650;2023-05-11T00:25:05;42757.38;;;-141.29;100.00
22025;BME280;11176;51.448;6.650;2023-05-11T00:27:32;42775.34;;;-141.29;100.00
22025;BME280;11176;51.448;6.650;2023-05-11T00:29:58;42761.38;;;-141.29;100.00
22025;BME280;11176;51.448;6.650;2023-05-11T00:32:25;42755.38;;;-141.29;100.00
22025;BME280;11176;51.448;6.650;2023-05-11T00:34:52;42769.34;;;-141.29;100.00
22025;BME280;11176;51.448;6.650;2023-05-11T00:37:19;42785.31;;;-141.29;100.00
22025;BME280;11176;51.448;6.650;2023-05-11T00:39:46;42751.38;;;-141.29;100.00
22025;BME280;11176;51.448;6.650;2023-05-11T00:42:13;42737.41;;;-141.29;100.00
22025;BME280;11176;51.448;6.650;2023-05-11T00:44:40;42781.34;;;-141.29;100.00
22025;BME280;11176;51.448;6.650;2023-05-11T00:47:06;42773.34;;;-141.29;100.00
22025;BME280;11176;51.448;6.650;2023-05-11T00:49:33;42789.31;;;-141.29;100.00
22025;BME280;11176;51.448;6.650;2023-05-11T00:51:59;42755.38;;;-141.29;100.00
22025;BME280;11176;51.448;6.650;2023-05-11T00:54:28;42757.38;;;-141.29;100.00
22025;BME280;11176;51.448;6.650;2023-05-11T00:56:55;42757.38;;;-141.29;100.00
22025;BME280;11176;51.448;6.650;2023-05-11T00:59:22;42765.34;;;-141.29;100.00
22025;BME280;11176;51.448;6.650;2023-05-11T01:01:49;42757.38;;;-141.29;100.00
22025;BME280;11176;51.448;6.650;2023-05-11T01:04:16;42781.34;;;-141.29;100.00
22025;BME280;11176;51.448;6.650;2023-05-11T01:06:51;42753.38;;;-141.29;100.00
22025;BME280;11176;51.448;6.650;2023-05-11T01:09:28;42777.34;;;-141.29;100.00
22025;BME280;11176;51.448;6.650;2023-05-11T01:12:14;42765.34;;;-141.29;100.00
22025;BME280;11176;51.448;6.650;2023-05-11T01:14:44;42769.34;;;-141.29;100.00
22025;BME280;11176;51.448;6.650;2023-05-11T01:17:22;42765.34;;;-141.29;100.00
22025;BME280;11176;51.448;6.650;2023-05-11T01:19:59;42789.31;;;-141.29;100.00
22025;BME280;11176;51.448;6.650;2023-05-11T01:22:57;42761.38;;;-141.29;100.00
22025;BME280;11176;51.448;6.650;2023-05-11T01:26:04;42775.34;;;-141.29;100.00
22025;BME280;11176;51.448;6.650;2023-05-11T01:29:01;42773.34;;;-141.29;100.00
22025;BME280;11176;51.448;6.650;2023-05-11T01:31:33;42771.34;;;-141.29;100.00
22025;BME280;11176;51.448;6.650;2023-05-11T01:34:03;42779.34;;;-141.29;100.00
22025;BME280;11176;51.448;6.650;2023-05-11T01:36:33;42787.31;;;-141.29;100.00
22025;BME280;11176;51.448;6.650;2023-05-11T01:39:03;42755.38;;;-141.29;100.00
22025;BME280;11176;51.448;6.650;2023-05-11T01:41:32;42773.34;;;-141.29;100.00
22025;BME280;11176;51.448;6.650;2023-05-11T01:44:05;42781.34;;;-141.29;100.00
22025;BME280;11176;51.448;6.650;2023-05-11T01:46:32;42765.34;;;-141.29;100.00
22025;BME280;11176;51.448;6.650;2023-05-11T01:49:02;42783.34;;;-141.29;100.00
22025;BME280;11176;51.448;6.650;2023-05-11T01:51:35;42767.34;;;-141.29;100.00
22025;BME280;11176;51.448;6.650;2023-05-11T01:54:08;42775.34;;;-141.29;100.00
22025;BME280;11176;51.448;6.650;2023-05-11T01:56:36;42773.34;;;-141.29;100.00
22025;BME280;11176;51.448;6.650;2023-05-11T01:59:03;42783.34;;;-141.29;100.00
22025;BME280;11176;51.448;6.650;2023-05-11T02:01:33;42743.41;;;-141.29;100.00
22025;BME280;11176;51.448;6.650;2023-05-11T02:04:02;42757.38;;;-141.29;100.00
22025;BME280;11176;51.448;6.650;2023-05-11T02:06:31;42777.34;;;-141.29;100.00
22025;BME280;11176;51.448;6.650;2023-05-11T02:09:00;42757.38;;;-141.29;100.00
22025;BME280;11176;51.448;6.650;2023-05-11T02:11:29;42773.34;;;-141.29;100.00
22025;BME280;11176;51.448;6.650;2023-05-11T02:13:57;42769.34;;;-141.29;100.00
22025;BME280;11176;51.448;6.650;2023-05-11T02:16:25;42765.34;;;-141.29;100.00
22025;BME280;11176;51.448;6.650;2023-05-11T02:18:56;42769.34;;;-141.29;100.00
22025;BME280;11176;51.448;6.650;2023-05-11T02:21:26;42775.34;;;-141.29;100.00
22025;BME280;11176;51.448;6.650;2023-05-11T02:23:53;42775.34;;;-141.29;100.00
22025;BME280;11176;51.448;6.650;2023-05-11T02:26:20;42751.38;;;-141.29;100.00
22025;BME280;11176;51.448;6.650;2023-05-11T02:28:48;42751.38;;;-141.29;100.00
22025;BME280;11176;51.448;6.650;2023-05-11T02:31:19;42785.31;;;-141.29;100.00
22025;BME280;11176;51.448;6.650;2023-05-11T02:33:49;42757.38;;;-141.29;100.00
22025;BME280;11176;51.448;6.650;2023-05-11T02:36:21;42783.34;;;-141.29;100.00
22025;BME280;11176;51.448;6.650;2023-05-11T02:38:49;42765.34;;;-141.29;100.00
22025;BME280;11176;51.448;6.650;2023-05-11T02:41:25;42765.34;;;-141.29;100.00
22025;BME280;11176;51.448;6.650;2023-05-11T02:43:55;42767.34;;;-141.29;100.00
22025;BME280;11176;51.448;6.650;2023-05-11T02:46:27;42785.31;;;-141.29;100.00
22025;BME280;11176;51.448;6.650;2023-05-11T02:48:58;42771.34;;;-141.29;100.00
22025;BME280;11176;51.448;6.650;2023-05-11T02:51:31;42753.38;;;-141.29;100.00
22025;BME280;11176;51.448;6.650;2023-05-11T02:53:59;42765.34;;;-141.29;100.00
22025;BME280;11176;51.448;6.650;2023-05-11T02:56:29;42775.34;;;-141.29;100.00
22025;BME280;11176;51.448;6.650;2023-05-11T02:58:56;42785.31;;;-141.29;100.00
22025;BME280;11176;51.448;6.650;2023-05-11T03:01:26;42787.31;;;-141.29;100.00
22025;BME280;11176;51.448;6.650;2023-05-11T03:03:56;42773.34;;;-141.29;100.00
22025;BME280;11176;51.448;6.650;2023-05-11T03:06:24;42789.31;;;-141.29;100.00
22025;BME280;11176;51.448;6.650;2023-05-11T03:08:51;42765.34;;;-141.29;100.00
22025;BME280;11176;51.448;6.650;2023-05-11T03:11:18;42753.38;;;-141.29;100.00
22025;BME280;11176;51.448;6.650;2023-05-11T03:13:46;42789.31;;;-141.29;100.00
22025;BME280;11176;51.448;6.650;2023-05-11T03:16:15;42763.34;;;-141.29;100.00
22025;BME280;11176;51.448;6.650;2023-05-11T03:18:44;42781.34;;;-141.29;100.00
22025;BME280;11176;51.448;6.650;2023-05-11T03:21:17;42785.31;;;-141.29;100.00
22025;BME280;11176;51.448;6.650;2023-05-11T03:23:46;42777.34;;;-141.29;100.00
22025;BME280;11176;51.448;6.650;2023-05-11T03:26:16;42765.34;;;-141.29;100.00
22025;BME280;11176;51.448;6.650;2023-05-11T03:28:44;42773.34;;;-141.29;100.00
22025;BME280;11176;51.448;6.650;2023-05-11T03:31:13;42773.34;;;-141.29;100.00
22025;BME280;11176;51.448;6.650;2023-05-11T03:33:39;42783.34;;;-141.29;100.00
22025;BME280;11176;51.448;6.650;2023-05-11T03:36:09;42777.34;;;-141.29;100.00
22025;BME280;11176;51.448;6.650;2023-05-11T03:38:36;42769.34;;;-141.29;100.00
22025;BME280;11176;51.448;6.650;2023-05-11T03:41:06;42777.34;;;-141.29;100.00
22025;BME280;11176;51.448;6.650;2023-05-11T03:43:36;42793.31;;;-141.29;100.00
22025;BME280;11176;51.448;6.650;2023-05-11T03:46:05;42765.34;;;-141.29;100.00
22025;BME280;11176;51.448;6.650;2023-05-11T03:48:32;42765.34;;;-141.29;100.00
22025;BME280;11176;51.448;6.650;2023-05-11T03:50:59;42769.34;;;-141.29;100.00
22025;BME280;11176;51.448;6.650;2023-05-11T03:53:26;42781.34;;;-141.29;100.00
22025;BME280;11176;51.448;6.650;2023-05-11T03:55:52;42775.34;;;-141.29;100.00
22025;BME280;11176;51.448;6.650;2023-05-11T03:58:20;42757.38;;;-141.29;100.00
22025;BME280;11176;51.448;6.650;2023-05-11T04:00:48;42773.34;;;-141.29;100.00
22025;BME280;11176;51.448;6.650;2023-05-11T04:03:14;42763.34;;;-141.29;100.00
22025;BME280;11176;51.448;6.650;2023-05-11T04:05:41;42755.38;;;-141.29;100.00
22025;BME280;11176;51.448;6.650;2023-05-11T04:08:10;42763.34;;;-141.29;100.00
22025;BME280;11176;51.448;6.650;2023-05-11T04:10:37;42771.34;;;-141.29;100.00
22025;BME280;11176;51.448;6.650;2023-05-11T04:13:04;42769.34;;;-141.29;100.00
22025;BME280;11176;51.448;6.650;2023-05-11T04:15:30;42759.38;;;-141.29;100.00
22025;BME280;11176;51.448;6.650;2023-05-11T04:17:57;42773.34;;;-141.29;100.00
22025;BME280;11176;51.448;6.650;2023-05-11T04:20:24;42769.34;;;-141.29;100.00
22025;BME280;11176;51.448;6.650;2023-05-11T04:22:50;42761.38;;;-141.29;100.00
22025;BME280;11176;51.448;6.650;2023-05-11T04:25:17;42763.34;;;-141.29;100.00
22025;BME280;11176;51.448;6.650;2023-05-11T04:27:43;42753.38;;;-141.29;100.00
22025;BME280;11176;51.448;6.650;2023-05-11T04:30:10;42733.41;;;-141.29;100.00
22025;BME280;11176;51.448;6.650;2023-05-11T04:32:37;42741.41;;;-141.29;100.00
22025;BME280;11176;51.448;6.650;2023-05-11T04:35:04;42735.41;;;-141.29;100.00
22025;BME280;11176;51.448;6.650;2023-05-11T04:37:34;42751.38;;;-141.29;100.00
22025;BME280;11176;51.448;6.650;2023-05-11T04:40:03;42733.41;;;-141.29;100.00
22025;BME280;11176;51.448;6.650;2023-05-11T04:42:36;42737.41;;;-141.29;100.00
22025;BME280;11176;51.448;6.650;2023-05-11T04:45:06;42747.38;;;-141.29;100.00
22025;BME280;11176;51.448;6.650;2023-05-11T04:47:33;42717.44;;;-141.29;100.00
22025;BME280;11176;51.448;6.650;2023-05-11T04:50:00;42725.41;;;-141.29;100.00
22025;BME280;11176;51.448;6.650;2023-05-11T04:52:29;42737.41;;;-141.29;100.00
22025;BME280;11176;51.448;6.650;2023-05-11T04:54:55;42743.41;;;-141.29;100.00
22025;BME280;11176;51.448;6.650;2023-05-11T04:57:22;42739.41;;;-141.29;100.00
22025;BME280;11176;51.448;6.650;2023-05-11T04:59:49;42749.38;;;-141.29;100.00
22025;BME280;11176;51.448;6.650;2023-05-11T05:02:15;42733.41;;;-141.29;100.00
22025;BME280;11176;51.448;6.650;2023-05-11T05:04:41;42727.41;;;-141.29;100.00
22025;BME280;11176;51.448;6.650;2023-05-11T05:07:08;42753.38;;;-141.29;100.00
22025;BME280;11176;51.448;6.650;2023-05-11T05:09:34;42721.44;;;-141.29;100.00
22025;BME280;11176;51.448;6.650;2023-05-11T05:12:01;42757.38;;;-141.29;100.00
22025;BME280;11176;51.448;6.650;2023-05-11T05:14:28;42763.34;;;-141.29;100.00
22025;BME280;11176;51.448;6.650;2023-05-11T05:16:54;42749.38;;;-141.29;100.00
22025;BME280;11176;51.448;6.650;2023-05-11T05:19:21;42765.34;;;-141.29;100.00
22025;BME280;11176;51.448;6.650;2023-05-11T05:21:50;42745.38;;;-141.29;100.00
22025;BME280;11176;51.448;6.650;2023-05-11T05:24:16;42749.38;;;-141.29;100.00
22025;BME280;11176;51.448;6.650;2023-05-11T05:26:43;42751.38;;;-141.29;100.00
22025;BME280;11176;51.448;6.650;2023-05-11T05:29:11;42765.34;;;-141.29;100.00
22025;BME280;11176;51.448;6.650;2023-05-11T05:31:37;42757.38;;;-141.29;100.00
22025;BME280;11176;51.448;6.650;2023-05-11T05:34:05;42777.34;;;-141.29;100.00
22025;BME280;11176;51.448;6.650;2023-05-11T05:36:32;42771.34;;;-141.29;100.00
22025;BME280;11176;51.448;6.650;2023-05-11T05:38:58;42741.41;;;-141.29;100.00
22025;BME280;11176;51.448;6.650;2023-05-11T05:41:24;42781.34;;;-141.29;100.00
22025;BME280;11176;51.448;6.650;2023-05-11T05:43:52;42773.34;;;-141.29;100.00
22025;BME280;11176;51.448;6.650;2023-05-11T05:46:19;42791.31;;;-141.29;100.00
22025;BME280;11176;51.448;6.650;2023-05-11T05:48:46;42771.34;;;-141.29;100.00
22025;BME280;11176;51.448;6.650;2023-05-11T05:51:12;42801.31;;;-141.29;100.00
22025;BME280;11176;51.448;6.650;2023-05-11T05:53:39;42797.31;;;-141.29;100.00
22025;BME280;11176;51.448;6.650;2023-05-11T05:56:05;42793.31;;;-141.29;100.00
22025;BME280;11176;51.448;6.650;2023-05-11T05:58:32;42801.31;;;-141.29;100.00
22025;BME280;11176;51.448;6.650;2023-05-11T06:00:59;42801.31;;;-141.29;100.00
22025;BME280;11176;51.448;6.650;2023-05-11T06:03:26;42819.28;;;-141.29;100.00
22025;BME280;11176;51.448;6.650;2023-05-11T06:05:55;42817.28;;;-141.29;100.00
22025;BME280;11176;51.448;6.650;2023-05-11T06:08:22;42785.31;;;-141.29;100.00
22025;BME280;11176;51.448;6.650;2023-05-11T06:10:48;42823.25;;;-141.29;100.00
22025;BME280;11176;51.448;6.650;2023-05-11T06:13:16;42809.28;;;-141.29;100.00
22025;BME280;11176;51.448;6.650;2023-05-11T06:15:43;42807.28;;;-141.29;100.00
22025;BME280;11176;51.448;6.650;2023-05-11T06:18:35;42801.31;;;-141.29;100.00
22025;BME280;11176;51.448;6.650;2023-05-11T06:21:05;42801.31;;;-141.29;100.00
22025;BME280;11176;51.448;6.650;2023-05-11T06:23:31;42833.25;;;-141.29;100.00
22025;BME280;11176;51.448;6.650;2023-05-11T06:25:58;42829.25;;;-141.29;100.00
22025;BME280;11176;51.448;6.650;2023-05-11T06:28:26;42841.25;;;-141.29;100.00
22025;BME280;11176;51.448;6.650;2023-05-11T06:30:58;42819.28;;;-141.29;100.00
22025;BME280;11176;51.448;6.650;2023-05-11T06:33:28;42833.25;;;-141.29;100.00
22025;BME280;11176;51.448;6.650;2023-05-11T06:35:55;42837.25;;;-141.29;100.00
22025;BME280;11176;51.448;6.650;2023-05-11T06:38:23;42839.25;;;-141.29;100.00
22025;BME280;11176;51.448;6.650;2023-05-11T06:40:51;42829.25;;;-141.29;100.00
22025;BME280;11176;51.448;6.650;2023-05-11T06:43:18;42817.28;;;-141.29;100.00
22025;BME280;11176;51.448;6.650;2023-05-11T06:45:47;42837.25;;;-141.29;100.00
22025;BME280;11176;51.448;6.650;2023-05-11T06:48:14;42857.22;;;-141.29;100.00
22025;BME280;11176;51.448;6.650;2023-05-11T06:50:40;42845.22;;;-141.29;100.00
22025;BME280;11176;51.448;6.650;2023-05-11T06:53:11;42837.25;;;-141.29;100.00
22025;BME280;11176;51.448;6.650;2023-05-11T06:55:37;42849.22;;;-141.29;100.00
22025;BME280;11176;51.448;6.650;2023-05-11T06:58:03;42829.25;;;-141.29;100.00
22025;BME280;11176;51.448;6.650;2023-05-11T07:00:30;42841.25;;;-141.29;100.00
22025;BME280;11176;51.448;6.650;2023-05-11T07:02:56;42865.19;;;-141.29;100.00
22025;BME280;11176;51.448;6.650;2023-05-11T07:05:23;42853.22;;;-141.29;100.00
22025;BME280;11176;51.448;6.650;2023-05-11T07:07:50;42849.22;;;-141.29;100.00
22025;BME280;11176;51.448;6.650;2023-05-11T07:10:17;42849.22;;;-141.29;100.00
22025;BME280;11176;51.448;6.650;2023-05-11T07:12:44;42845.22;;;-141.29;100.00
22025;BME280;11176;51.448;6.650;2023-05-11T07:15:11;42841.25;;;-141.29;100.00
22025;BME280;11176;51.448;6.650;2023-05-11T07:17:38;42833.25;;;-141.29;100.00
22025;BME280;11176;51.448;6.650;2023-05-11T07:20:04;42829.25;;;-141.29;100.00
22025;BME280;11176;51.448;6.650;2023-05-11T07:22:31;42853.22;;;-141.29;100.00
22025;BME280;11176;51.448;6.650;2023-05-11T07:24:59;42853.22;;;-141.29;100.00
22025;BME280;11176;51.448;6.650;2023-05-11T07:27:25;42821.28;;;-141.29;100.00
22025;BME280;11176;51.448;6.650;2023-05-11T07:29:52;42841.25;;;-141.29;100.00
22025;BME280;11176;51.448;6.650;2023-05-11T07:32:19;42835.25;;;-141.29;100.00
22025;BME280;11176;51.448;6.650;2023-05-11T07:34:45;42817.28;;;-141.29;100.00
22025;BME280;11176;51.448;6.650;2023-05-11T07:37:12;42831.25;;;-141.29;100.00
22025;BME280;11176;51.448;6.650;2023-05-11T07:39:38;42829.25;;;-141.29;100.00
22025;BME280;11176;51.448;6.650;2023-05-11T07:42:05;42825.25;;;-141.29;100.00
22025;BME280;11176;51.448;6.650;2023-05-11T07:44:32;42809.28;;;-141.29;100.00
22025;BME280;11176;51.448;6.650;2023-05-11T07:46:58;42821.28;;;-141.29;100.00
22025;BME280;11176;51.448;6.650;2023-05-11T07:49:24;42829.25;;;-141.29;100.00
22025;BME280;11176;51.448;6.650;2023-05-11T07:52:08;42821.28;;;-141.29;100.00
22025;BME280;11176;51.448;6.650;2023-05-11T07:54:34;42817.28;;;-141.29;100.00
22025;BME280;11176;51.448;6.650;2023-05-11T07:57:00;42825.25;;;-141.29;100.00
22025;BME280;11176;51.448;6.650;2023-05-11T07:59:29;42809.28;;;-141.29;100.00
22025;BME280;11176;51.448;6.650;2023-05-11T08:01:55;42813.28;;;-141.29;100.00
22025;BME280;11176;51.448;6.650;2023-05-11T08:04:22;42853.22;;;-141.29;100.00
22025;BME280;11176;51.448;6.650;2023-05-11T08:06:49;42821.28;;;-141.29;100.00
22025;BME280;11176;51.448;6.650;2023-05-11T08:09:15;42809.28;;;-141.29;100.00
22025;BME280;11176;51.448;6.650;2023-05-11T08:11:42;42817.28;;;-141.29;100.00
22025;BME280;11176;51.448;6.650;2023-05-11T08:14:09;42823.25;;;-141.29;100.00
22025;BME280;11176;51.448;6.650;2023-05-11T08:16:36;42807.28;;;-141.29;100.00
22025;BME280;11176;51.448;6.650;2023-05-11T08:19:02;42805.28;;;-141.29;100.00
22025;BME280;11176;51.448;6.650;2023-05-11T08:21:29;42789.31;;;-141.29;100.00
22025;BME280;11176;51.448;6.650;2023-05-11T08:23:55;42765.34;;;-141.29;100.00
22025;BME280;11176;51.448;6.650;2023-05-11T08:26:22;42789.31;;;-141.29;100.00
22025;BME280;11176;51.448;6.650;2023-05-11T08:28:48;42785.31;;;-141.29;100.00
22025;BME280;11176;51.448;6.650;2023-05-11T08:31:17;42761.38;;;-141.29;100.00
22025;BME280;11176;51.448;6.650;2023-05-11T08:33:44;42795.31;;;-141.29;100.00
22025;BME280;11176;51.448;6.650;2023-05-11T08:36:10;42749.38;;;-141.29;100.00
22025;BME280;11176;51.448;6.650;2023-05-11T08:38:40;42749.38;;;-141.29;100.00
22025;BME280;11176;51.448;6.650;2023-05-11T08:41:07;42763.34;;;-141.29;100.00
22025;BME280;11176;51.448;6.650;2023-05-11T08:43:38;42753.38;;;-141.29;100.00
22025;BME280;11176;51.448;6.650;2023-05-11T08:46:06;42737.41;;;-141.29;100.00
22025;BME280;11176;51.448;6.650;2023-05-11T08:48:33;42749.38;;;-141.29;100.00
22025;BME280;11176;51.448;6.650;2023-05-11T08:51:00;42753.38;;;-141.29;100.00
22025;BME280;11176;51.448;6.650;2023-05-11T08:53:30;42755.38;;;-141.29;100.00
22025;BME280;11176;51.448;6.650;2023-05-11T08:55:57;42737.41;;;-141.29;100.00
22025;BME280;11176;51.448;6.650;2023-05-11T08:58:25;42753.38;;;-141.29;100.00
22025;BME280;11176;51.448;6.650;2023-05-11T09:00:53;42765.34;;;-141.29;100.00
22025;BME280;11176;51.448;6.650;2023-05-11T09:03:20;42765.34;;;-141.29;100.00
22025;BME280;11176;51.448;6.650;2023-05-11T09:05:48;42749.38;;;-141.29;100.00
22025;BME280;11176;51.448;6.650;2023-05-11T09:08:17;42753.38;;;-141.29;100.00
22025;BME280;11176;51.448;6.650;2023-05-11T09:10:44;42761.38;;;-141.29;100.00
22025;BME280;11176;51.448;6.650;2023-05-11T09:13:11;42741.41;;;-141.29;99.68
22025;BME280;11176;51.448;6.650;2023-05-11T09:15:38;42749.38;;;-141.29;100.00
22025;BME280;11176;51.448;6.650;2023-05-11T09:18:04;42749.38;;;-141.29;100.00
22025;BME280;11176;51.448;6.650;2023-05-11T09:20:32;42753.38;;;-141.29;97.72
22025;BME280;11176;51.448;6.650;2023-05-11T09:23:00;42753.38;;;-141.29;98.26
22025;BME280;11176;51.448;6.650;2023-05-11T09:25:31;42751.38;;;-141.29;97.90
22025;BME280;11176;51.448;6.650;2023-05-11T09:28:00;42721.44;;;-141.29;96.63
22025;BME280;11176;51.448;6.650;2023-05-11T09:30:26;42737.41;;;-141.29;96.75
22025;BME280;11176;51.448;6.650;2023-05-11T09:32:57;42741.41;;;-141.29;96.35
22025;BME280;11176;51.448;6.650;2023-05-11T09:35:34;42735.41;;;-141.29;96.13
22025;BME280;11176;51.448;6.650;2023-05-11T09:38:09;42729.41;;;-141.29;94.66
22025;BME280;11176;51.448;6.650;2023-05-11T09:40:55;42717.44;;;-141.29;94.86
22025;BME280;11176;51.448;6.650;2023-05-11T09:43:29;42689.47;;;-141.29;94.64
22025;BME280;11176;51.448;6.650;2023-05-11T09:45:57;42677.50;;;-141.29;93.34
22025;BME280;11176;51.448;6.650;2023-05-11T09:48:33;42693.47;;;-141.29;94.06
22025;BME280;11176;51.448;6.650;2023-05-11T09:51:05;42685.47;;;-141.29;94.57
22025;BME280;11176;51.448;6.650;2023-05-11T09:53:33;42693.47;;;-141.29;93.38
22025;BME280;11176;51.448;6.650;2023-05-11T09:56:00;42645.56;;;-141.29;91.89
22025;BME280;11176;51.448;6.650;2023-05-11T09:58:44;42641.56;;;-141.29;90.01
22025;BME280;11176;51.448;6.650;2023-05-11T10:01:11;42637.56;;;-141.29;90.53
22025;BME280;11176;51.448;6.650;2023-05-11T10:03:50;42637.56;;;-141.29;90.45
22025;BME280;11176;51.448;6.650;2023-05-11T10:06:45;42621.59;;;-141.29;90.01
22025;BME280;11176;51.448;6.650;2023-05-11T10:09:12;42593.63;;;-141.29;89.40
22025;BME280;11176;51.448;6.650;2023-05-11T10:11:42;42625.59;;;-141.29;90.09
22025;BME280;11176;51.448;6.650;2023-05-11T10:14:11;42601.63;;;-141.29;89.20
22025;BME280;11176;51.448;6.650;2023-05-11T10:16:42;42595.63;;;-141.29;90.03
22025;BME280;11176;51.448;6.650;2023-05-11T10:19:10;42601.63;;;-141.29;89.93
22025;BME280;11176;51.448;6.650;2023-05-11T10:21:37;42603.63;;;-141.29;90.05
22025;BME280;11176;51.448;6.650;2023-05-11T10:24:04;42609.59;;;-141.29;90.25
22025;BME280;11176;51.448;6.650;2023-05-11T10:26:31;42599.63;;;-141.29;90.51
22025;BME280;11176;51.448;6.650;2023-05-11T10:28:59;42601.63;;;-141.29;90.06
22025;BME280;11176;51.448;6.650;2023-05-11T10:31:27;42597.63;;;-141.29;89.98
22025;BME280;11176;51.448;6.650;2023-05-11T10:33:54;42593.63;;;-141.29;89.12
22025;BME280;11176;51.448;6.650;2023-05-11T10:36:22;42581.66;;;-141.29;89.27
22025;BME280;11176;51.448;6.650;2023-05-11T10:38:49;42605.63;;;-141.29;90.24
22025;BME280;11176;51.448;6.650;2023-05-11T10:44:13;42593.63;;;-141.29;90.57
22025;BME280;11176;51.448;6.650;2023-05-11T10:52:42;42573.66;;;-141.29;88.96
22025;BME280;11176;51.448;6.650;2023-05-11T10:58:08;42557.69;;;-141.29;87.87
22025;BME280;11176;51.448;6.650;2023-05-11T11:01:02;42553.69;;;-141.29;87.25
22025;BME280;11176;51.448;6.650;2023-05-11T11:03:35;42549.72;;;-141.29;86.94
22025;BME280;11176;51.448;6.650;2023-05-11T11:06:02;42577.66;;;-141.29;87.08
22025;BME280;11176;51.448;6.650;2023-05-11T11:09:00;42551.69;;;-141.29;86.77
22025;BME280;11176;51.448;6.650;2023-05-11T11:11:46;42515.75;;;-141.29;83.54
22025;BME280;11176;51.448;6.650;2023-05-11T11:14:14;42497.78;;;-141.29;82.91
22025;BME280;11176;51.448;6.650;2023-05-11T11:19:39;42513.75;;;-141.29;84.29
22025;BME280;11176;51.448;6.650;2023-05-11T11:25:03;42497.78;;;-141.29;84.09
22025;BME280;11176;51.448;6.650;2023-05-11T11:30:23;42467.84;;;-141.29;82.55
22025;BME280;11176;51.448;6.650;2023-05-11T11:40:37;42457.84;;;-141.29;80.45
22025;BME280;11176;51.448;6.650;2023-05-11T11:43:27;42455.88;;;-141.29;79.14
22025;BME280;11176;51.448;6.650;2023-05-11T11:46:01;42417.94;;;-141.29;78.45
22025;BME280;11176;51.448;6.650;2023-05-11T11:48:29;42447.88;;;-141.29;79.22
22025;BME280;11176;51.448;6.650;2023-05-11T11:56:07;42451.88;;;-141.29;82.79
22025;BME280;11176;51.448;6.650;2023-05-11T12:01:10;42453.88;;;-141.29;83.61
22025;BME280;11176;51.448;6.650;2023-05-11T12:03:38;42429.91;;;-141.29;83.37
22025;BME280;11176;51.448;6.650;2023-05-11T12:06:05;42433.91;;;-141.29;82.52
22025;BME280;11176;51.448;6.650;2023-05-11T12:08:33;42457.84;;;-141.29;82.10
22025;BME280;11176;51.448;6.650;2023-05-11T12:11:01;42417.94;;;-141.29;80.21
22025;BME280;11176;51.448;6.650;2023-05-11T12:13:28;42429.91;;;-141.29;80.12
22025;BME280;11176;51.448;6.650;2023-05-11T12:16:11;42427.91;;;-141.29;79.68
22025;BME280;11176;51.448;6.650;2023-05-11T12:18:39;42433.91;;;-141.29;79.99
22025;BME280;11176;51.448;6.650;2023-05-11T12:21:07;42421.91;;;-141.29;80.12
22025;BME280;11176;51.448;6.650;2023-05-11T12:23:51;42433.91;;;-141.29;80.14
22025;BME280;11176;51.448;6.650;2023-05-11T12:26:19;42453.88;;;-141.29;79.90
22025;BME280;11176;51.448;6.650;2023-05-11T12:28:47;42429.91;;;-141.29;79.05
22025;BME280;11176;51.448;6.650;2023-05-11T12:31:18;42443.88;;;-141.29;78.50
22025;BME280;11176;51.448;6.650;2023-05-11T12:33:49;42429.91;;;-141.29;77.84
22025;BME280;11176;51.448;6.650;2023-05-11T12:36:17;42399.97;;;-141.29;77.29
22025;BME280;11176;51.448;6.650;2023-05-11T12:38:45;42417.94;;;-141.29;77.11
22025;BME280;11176;51.448;6.650;2023-05-11T12:41:19;42409.94;;;-141.29;76.88
22025;BME280;11176;51.448;6.650;2023-05-11T12:43:49;42413.94;;;-141.29;76.38
22025;BME280;11176;51.448;6.650;2023-05-11T12:46:19;42423.91;;;-141.29;76.25
22025;BME280;11176;51.448;6.650;2023-05-11T12:48:48;42409.94;;;-141.29;76.83
22025;BME280;11176;51.448;6.650;2023-05-11T12:54:09;42389.97;;;-141.29;76.50
22025;BME280;11176;51.448;6.650;2023-05-11T12:56:47;42397.97;;;-141.29;76.70
22025;BME280;11176;51.448;6.650;2023-05-11T12:59:33;42391.97;;;-141.29;77.22
22025;BME280;11176;51.448;6.650;2023-05-11T13:02:10;42374.00;;;-141.29;76.29
22025;BME280;11176;51.448;6.650;2023-05-11T13:04:39;42413.94;;;-141.29;78.12
22025;BME280;11176;51.448;6.650;2023-05-11T13:07:06;42393.97;;;-141.29;78.25
22025;BME280;11176;51.448;6.650;2023-05-11T13:09:32;42405.94;;;-141.29;77.73
22025;BME280;11176;51.448;6.650;2023-05-11T13:12:15;42407.94;;;-141.29;77.41
22025;BME280;11176;51.448;6.650;2023-05-11T13:14:47;42389.97;;;-141.29;77.45
22025;BME280;11176;51.448;6.650;2023-05-11T13:17:29;42421.91;;;-141.29;78.17
22025;BME280;11176;51.448;6.650;2023-05-11T13:19:56;42393.97;;;-141.29;76.52
22025;BME280;11176;51.448;6.650;2023-05-11T13:22:23;42391.97;;;-141.29;75.75